Penistone, United Kingdom
Current Conditions -  °F | °C
As of 6:20 PM on Friday 19 Dec 2014 (Local Time) from EGNM Reporting Station
Rain Showers Rain Showers  
Wind Chill: -1°   Ceiling: Unl
Heat Index:   Visibility: 6mi
Dew Point:   Wind: 25mph
Humidity: 81%   Direction: 270°W
Pressure: 29.91"   Gusts: 40mph
Location:  53.53°N, 1.63°W
Report Text: EGNM 191820Z 27022G35KT 9999 -SHRA FEW022 05/02 Q1013
Loading
Personal Weather Stations






























Interactive Weather Map New forecast layout! Learn more

10-Day Weather Forecast

Advertisements
Track Severe Weather on mobile